sensor_id;sensor_type;location;lat;lon;timestamp;P1;durP1;ratioP1;P2;durP2;ratioP2
29984;SDS011;17387;42.690;23.328;2023-07-31T00:01:54;4.93;;;4.15;;
29984;SDS011;17387;42.690;23.328;2023-07-31T00:04:19;4.40;;;3.93;;
29984;SDS011;17387;42.690;23.328;2023-07-31T00:06:45;4.87;;;4.07;;
29984;SDS011;17387;42.690;23.328;2023-07-31T00:09:10;5.38;;;4.43;;
29984;SDS011;17387;42.690;23.328;2023-07-31T00:11:35;4.60;;;3.95;;
29984;SDS011;17387;42.690;23.328;2023-07-31T00:14:00;4.30;;;3.53;;
29984;SDS011;17387;42.690;23.328;2023-07-31T00:16:26;5.17;;;3.80;;
29984;SDS011;17387;42.690;23.328;2023-07-31T00:18:51;4.80;;;3.83;;
29984;SDS011;17387;42.690;23.328;2023-07-31T00:21:16;6.33;;;4.13;;
29984;SDS011;17387;42.690;23.328;2023-07-31T00:23:41;5.05;;;3.90;;
29984;SDS011;17387;42.690;23.328;2023-07-31T00:26:06;6.00;;;4.10;;
29984;SDS011;17387;42.690;23.328;2023-07-31T00:28:32;4.50;;;4.07;;
29984;SDS011;17387;42.690;23.328;2023-07-31T00:30:57;4.97;;;4.53;;
29984;SDS011;17387;42.690;23.328;2023-07-31T00:33:22;5.20;;;4.70;;
29984;SDS011;17387;42.690;23.328;2023-07-31T00:35:48;5.23;;;4.67;;
29984;SDS011;17387;42.690;23.328;2023-07-31T00:38:13;5.78;;;4.90;;
29984;SDS011;17387;42.690;23.328;2023-07-31T00:40:38;9.13;;;5.60;;
29984;SDS011;17387;42.690;23.328;2023-07-31T00:43:04;6.17;;;5.57;;
29984;SDS011;17387;42.690;23.328;2023-07-31T00:45:29;5.65;;;5.15;;
29984;SDS011;17387;42.690;23.328;2023-07-31T00:47:54;6.80;;;5.07;;
29984;SDS011;17387;42.690;23.328;2023-07-31T00:50:20;6.50;;;5.88;;
29984;SDS011;17387;42.690;23.328;2023-07-31T00:52:45;7.78;;;6.90;;
29984;SDS011;17387;42.690;23.328;2023-07-31T00:55:10;9.55;;;8.27;;
29984;SDS011;17387;42.690;23.328;2023-07-31T00:57:36;10.07;;;8.20;;
29984;SDS011;17387;42.690;23.328;2023-07-31T01:00:02;9.98;;;9.00;;
29984;SDS011;17387;42.690;23.328;2023-07-31T01:02:28;11.55;;;10.45;;
29984;SDS011;17387;42.690;23.328;2023-07-31T01:04:53;11.43;;;10.30;;
29984;SDS011;17387;42.690;23.328;2023-07-31T01:07:21;11.93;;;10.73;;
29984;SDS011;17387;42.690;23.328;2023-07-31T01:09:49;13.07;;;11.40;;
29984;SDS011;17387;42.690;23.328;2023-07-31T01:12:17;12.65;;;11.35;;
29984;SDS011;17387;42.690;23.328;2023-07-31T01:17:40;15.80;;;14.15;;
29984;SDS011;17387;42.690;23.328;2023-07-31T01:20:07;17.67;;;15.18;;
29984;SDS011;17387;42.690;23.328;2023-07-31T01:28:13;19.05;;;17.00;;
29984;SDS011;17387;42.690;23.328;2023-07-31T01:30:43;20.90;;;16.83;;
29984;SDS011;17387;42.690;23.328;2023-07-31T01:33:09;19.70;;;17.55;;
29984;SDS011;17387;42.690;23.328;2023-07-31T01:35:35;21.42;;;19.23;;
29984;SDS011;17387;42.690;23.328;2023-07-31T01:38:01;25.33;;;22.60;;
29984;SDS011;17387;42.690;23.328;2023-07-31T01:40:26;26.83;;;23.85;;
29984;SDS011;17387;42.690;23.328;2023-07-31T01:42:51;29.10;;;25.93;;
29984;SDS011;17387;42.690;23.328;2023-07-31T01:45:17;34.87;;;28.43;;
29984;SDS011;17387;42.690;23.328;2023-07-31T01:47:42;33.58;;;29.17;;
29984;SDS011;17387;42.690;23.328;2023-07-31T01:50:07;34.17;;;30.37;;
29984;SDS011;17387;42.690;23.328;2023-07-31T01:52:32;36.85;;;31.40;;
29984;SDS011;17387;42.690;23.328;2023-07-31T01:54:58;34.70;;;29.40;;
29984;SDS011;17387;42.690;23.328;2023-07-31T01:57:23;37.93;;;32.37;;
29984;SDS011;17387;42.690;23.328;2023-07-31T01:59:48;39.25;;;32.35;;
29984;SDS011;17387;42.690;23.328;2023-07-31T02:02:14;35.88;;;31.10;;
29984;SDS011;17387;42.690;23.328;2023-07-31T02:04:39;32.87;;;28.47;;
29984;SDS011;17387;42.690;23.328;2023-07-31T02:07:05;31.55;;;27.95;;
29984;SDS011;17387;42.690;23.328;2023-07-31T02:09:31;31.38;;;26.65;;
29984;SDS011;17387;42.690;23.328;2023-07-31T02:11:56;32.00;;;27.17;;
29984;SDS011;17387;42.690;23.328;2023-07-31T02:14:21;31.03;;;25.80;;
29984;SDS011;17387;42.690;23.328;2023-07-31T02:16:46;30.27;;;25.77;;
29984;SDS011;17387;42.690;23.328;2023-07-31T02:19:12;31.08;;;26.73;;
29984;SDS011;17387;42.690;23.328;2023-07-31T02:21:37;31.83;;;26.70;;
29984;SDS011;17387;42.690;23.328;2023-07-31T02:24:02;28.77;;;25.67;;
29984;SDS011;17387;42.690;23.328;2023-07-31T02:26:27;28.50;;;25.40;;
29984;SDS011;17387;42.690;23.328;2023-07-31T02:28:53;31.20;;;26.30;;
29984;SDS011;17387;42.690;23.328;2023-07-31T02:31:18;29.80;;;26.47;;
29984;SDS011;17387;42.690;23.328;2023-07-31T02:33:43;30.23;;;26.43;;
29984;SDS011;17387;42.690;23.328;2023-07-31T02:36:08;30.52;;;27.33;;
29984;SDS011;17387;42.690;23.328;2023-07-31T02:38:34;35.07;;;28.23;;
29984;SDS011;17387;42.690;23.328;2023-07-31T02:40:59;31.00;;;26.33;;
29984;SDS011;17387;42.690;23.328;2023-07-31T02:43:24;30.77;;;26.83;;
29984;SDS011;17387;42.690;23.328;2023-07-31T02:45:52;29.90;;;26.40;;
29984;SDS011;17387;42.690;23.328;2023-07-31T02:48:17;29.17;;;24.65;;
29984;SDS011;17387;42.690;23.328;2023-07-31T02:50:43;29.20;;;26.02;;
29984;SDS011;17387;42.690;23.328;2023-07-31T02:53:08;28.87;;;25.77;;
29984;SDS011;17387;42.690;23.328;2023-07-31T02:55:33;29.77;;;26.23;;
29984;SDS011;17387;42.690;23.328;2023-07-31T02:57:58;28.67;;;25.60;;
29984;SDS011;17387;42.690;23.328;2023-07-31T03:00:24;28.33;;;25.33;;
29984;SDS011;17387;42.690;23.328;2023-07-31T03:02:49;29.27;;;25.67;;
29984;SDS011;17387;42.690;23.328;2023-07-31T03:05:14;29.42;;;25.80;;
29984;SDS011;17387;42.690;23.328;2023-07-31T03:07:40;30.52;;;26.58;;
29984;SDS011;17387;42.690;23.328;2023-07-31T03:10:05;27.37;;;24.47;;
29984;SDS011;17387;42.690;23.328;2023-07-31T03:12:31;28.88;;;25.75;;
29984;SDS011;17387;42.690;23.328;2023-07-31T03:14:56;30.87;;;25.70;;
29984;SDS011;17387;42.690;23.328;2023-07-31T03:17:21;30.02;;;26.05;;
29984;SDS011;17387;42.690;23.328;2023-07-31T03:19:47;28.27;;;24.83;;
29984;SDS011;17387;42.690;23.328;2023-07-31T03:22:12;30.05;;;26.45;;
29984;SDS011;17387;42.690;23.328;2023-07-31T03:24:37;28.73;;;24.50;;
29984;SDS011;17387;42.690;23.328;2023-07-31T03:27:02;27.60;;;23.77;;
29984;SDS011;17387;42.690;23.328;2023-07-31T03:29:28;28.17;;;25.10;;
29984;SDS011;17387;42.690;23.328;2023-07-31T03:31:53;28.88;;;24.92;;
29984;SDS011;17387;42.690;23.328;2023-07-31T03:34:18;29.45;;;25.83;;
29984;SDS011;17387;42.690;23.328;2023-07-31T03:36:44;30.08;;;25.50;;
29984;SDS011;17387;42.690;23.328;2023-07-31T03:39:09;29.90;;;26.10;;
29984;SDS011;17387;42.690;23.328;2023-07-31T03:41:34;30.80;;;26.40;;
29984;SDS011;17387;42.690;23.328;2023-07-31T03:44:00;30.48;;;27.13;;
29984;SDS011;17387;42.690;23.328;2023-07-31T03:46:25;30.83;;;26.57;;
29984;SDS011;17387;42.690;23.328;2023-07-31T03:48:50;33.95;;;26.92;;
29984;SDS011;17387;42.690;23.328;2023-07-31T03:51:16;32.25;;;27.63;;
29984;SDS011;17387;42.690;23.328;2023-07-31T03:53:42;32.28;;;26.70;;
29984;SDS011;17387;42.690;23.328;2023-07-31T03:56:07;31.40;;;27.48;;
29984;SDS011;17387;42.690;23.328;2023-07-31T03:58:32;30.30;;;26.38;;
29984;SDS011;17387;42.690;23.328;2023-07-31T04:00:58;33.15;;;27.20;;
29984;SDS011;17387;42.690;23.328;2023-07-31T04:03:23;30.13;;;25.77;;
29984;SDS011;17387;42.690;23.328;2023-07-31T04:05:48;32.83;;;27.47;;
29984;SDS011;17387;42.690;23.328;2023-07-31T04:08:13;34.90;;;27.60;;
29984;SDS011;17387;42.690;23.328;2023-07-31T04:10:38;35.03;;;29.60;;
29984;SDS011;17387;42.690;23.328;2023-07-31T04:13:04;33.85;;;27.73;;
29984;SDS011;17387;42.690;23.328;2023-07-31T04:15:29;33.37;;;27.03;;
29984;SDS011;17387;42.690;23.328;2023-07-31T04:17:54;34.42;;;29.17;;
29984;SDS011;17387;42.690;23.328;2023-07-31T04:20:19;30.90;;;25.77;;
29984;SDS011;17387;42.690;23.328;2023-07-31T04:22:45;31.77;;;27.73;;
29984;SDS011;17387;42.690;23.328;2023-07-31T04:25:10;33.27;;;28.07;;
29984;SDS011;17387;42.690;23.328;2023-07-31T04:27:35;33.30;;;26.73;;
29984;SDS011;17387;42.690;23.328;2023-07-31T04:30:01;34.35;;;28.35;;
29984;SDS011;17387;42.690;23.328;2023-07-31T04:32:26;34.43;;;28.60;;
29984;SDS011;17387;42.690;23.328;2023-07-31T04:34:51;33.65;;;27.02;;
29984;SDS011;17387;42.690;23.328;2023-07-31T04:37:16;32.05;;;26.65;;
29984;SDS011;17387;42.690;23.328;2023-07-31T04:39:42;33.25;;;27.17;;
29984;SDS011;17387;42.690;23.328;2023-07-31T04:42:07;31.00;;;27.40;;
29984;SDS011;17387;42.690;23.328;2023-07-31T04:44:32;31.67;;;26.47;;
29984;SDS011;17387;42.690;23.328;2023-07-31T04:46:57;32.70;;;26.38;;
29984;SDS011;17387;42.690;23.328;2023-07-31T04:49:23;31.88;;;25.90;;
29984;SDS011;17387;42.690;23.328;2023-07-31T04:51:48;30.77;;;24.97;;
29984;SDS011;17387;42.690;23.328;2023-07-31T04:54:13;30.52;;;25.30;;
29984;SDS011;17387;42.690;23.328;2023-07-31T04:56:40;32.33;;;25.92;;
29984;SDS011;17387;42.690;23.328;2023-07-31T04:59:05;31.73;;;25.70;;
29984;SDS011;17387;42.690;23.328;2023-07-31T05:01:30;30.70;;;23.23;;
29984;SDS011;17387;42.690;23.328;2023-07-31T05:03:56;29.53;;;25.70;;
29984;SDS011;17387;42.690;23.328;2023-07-31T05:06:21;29.60;;;24.73;;
29984;SDS011;17387;42.690;23.328;2023-07-31T05:08:46;29.05;;;24.25;;
29984;SDS011;17387;42.690;23.328;2023-07-31T05:11:11;26.50;;;23.70;;
29984;SDS011;17387;42.690;23.328;2023-07-31T05:13:37;27.10;;;23.38;;
29984;SDS011;17387;42.690;23.328;2023-07-31T05:16:02;23.33;;;20.83;;
29984;SDS011;17387;42.690;23.328;2023-07-31T05:18:27;23.80;;;21.30;;
29984;SDS011;17387;42.690;23.328;2023-07-31T05:20:52;22.65;;;20.33;;
29984;SDS011;17387;42.690;23.328;2023-07-31T05:23:18;21.23;;;18.97;;
29984;SDS011;17387;42.690;23.328;2023-07-31T05:25:43;21.85;;;19.58;;
29984;SDS011;17387;42.690;23.328;2023-07-31T05:28:08;21.43;;;19.13;;
29984;SDS011;17387;42.690;23.328;2023-07-31T05:30:33;20.42;;;18.33;;
29984;SDS011;17387;42.690;23.328;2023-07-31T05:32:59;20.40;;;18.30;;
29984;SDS011;17387;42.690;23.328;2023-07-31T05:35:24;19.48;;;17.52;;
29984;SDS011;17387;42.690;23.328;2023-07-31T05:37:49;16.90;;;15.20;;
29984;SDS011;17387;42.690;23.328;2023-07-31T05:40:14;18.30;;;16.40;;
29984;SDS011;17387;42.690;23.328;2023-07-31T05:42:40;19.27;;;17.17;;
29984;SDS011;17387;42.690;23.328;2023-07-31T05:45:08;17.23;;;15.40;;
29984;SDS011;17387;42.690;23.328;2023-07-31T05:47:33;15.80;;;13.82;;
29984;SDS011;17387;42.690;23.328;2023-07-31T05:49:59;15.57;;;13.98;;
29984;SDS011;17387;42.690;23.328;2023-07-31T05:52:24;14.67;;;13.10;;
29984;SDS011;17387;42.690;23.328;2023-07-31T05:54:49;14.83;;;13.33;;
29984;SDS011;17387;42.690;23.328;2023-07-31T05:57:15;13.32;;;11.30;;
29984;SDS011;17387;42.690;23.328;2023-07-31T05:59:40;12.45;;;11.13;;
29984;SDS011;17387;42.690;23.328;2023-07-31T06:02:05;11.93;;;10.80;;
29984;SDS011;17387;42.690;23.328;2023-07-31T06:04:31;12.60;;;11.30;;
29984;SDS011;17387;42.690;23.328;2023-07-31T06:06:56;12.65;;;11.10;;
29984;SDS011;17387;42.690;23.328;2023-07-31T06:09:21;14.43;;;10.85;;
29984;SDS011;17387;42.690;23.328;2023-07-31T06:11:46;11.40;;;10.20;;
29984;SDS011;17387;42.690;23.328;2023-07-31T06:14:12;11.75;;;8.98;;
29984;SDS011;17387;42.690;23.328;2023-07-31T06:16:37;13.07;;;8.20;;
29984;SDS011;17387;42.690;23.328;2023-07-31T06:19:02;10.07;;;7.68;;
29984;SDS011;17387;42.690;23.328;2023-07-31T06:21:28;8.52;;;6.95;;
29984;SDS011;17387;42.690;23.328;2023-07-31T06:23:53;9.13;;;6.88;;
29984;SDS011;17387;42.690;23.328;2023-07-31T06:26:18;8.68;;;7.45;;
29984;SDS011;17387;42.690;23.328;2023-07-31T06:28:44;8.32;;;6.57;;
29984;SDS011;17387;42.690;23.328;2023-07-31T06:31:09;7.03;;;6.10;;
29984;SDS011;17387;42.690;23.328;2023-07-31T06:33:34;7.97;;;6.60;;
29984;SDS011;17387;42.690;23.328;2023-07-31T06:35:59;6.40;;;5.80;;
29984;SDS011;17387;42.690;23.328;2023-07-31T06:38:25;7.43;;;6.00;;
29984;SDS011;17387;42.690;23.328;2023-07-31T06:40:50;7.72;;;6.63;;
29984;SDS011;17387;42.690;23.328;2023-07-31T06:43:16;7.95;;;6.53;;
29984;SDS011;17387;42.690;23.328;2023-07-31T06:45:41;6.80;;;6.10;;
29984;SDS011;17387;42.690;23.328;2023-07-31T06:48:06;7.03;;;6.33;;
29984;SDS011;17387;42.690;23.328;2023-07-31T06:50:32;8.75;;;6.13;;
29984;SDS011;17387;42.690;23.328;2023-07-31T06:52:57;9.35;;;5.40;;
29984;SDS011;17387;42.690;23.328;2023-07-31T06:55:23;5.80;;;4.97;;
29984;SDS011;17387;42.690;23.328;2023-07-31T06:57:49;6.95;;;5.38;;
29984;SDS011;17387;42.690;23.328;2023-07-31T07:00:14;6.45;;;5.47;;
29984;SDS011;17387;42.690;23.328;2023-07-31T07:02:40;5.97;;;5.38;;
29984;SDS011;17387;42.690;23.328;2023-07-31T07:05:06;5.47;;;4.90;;
29984;SDS011;17387;42.690;23.328;2023-07-31T07:07:31;6.72;;;4.90;;
29984;SDS011;17387;42.690;23.328;2023-07-31T07:09:57;5.97;;;4.90;;
29984;SDS011;17387;42.690;23.328;2023-07-31T07:12:24;7.50;;;5.45;;
29984;SDS011;17387;42.690;23.328;2023-07-31T07:14:49;7.00;;;5.15;;
29984;SDS011;17387;42.690;23.328;2023-07-31T07:17:15;6.03;;;4.60;;
29984;SDS011;17387;42.690;23.328;2023-07-31T07:19:40;7.60;;;5.43;;
29984;SDS011;17387;42.690;23.328;2023-07-31T07:22:05;5.25;;;4.75;;
29984;SDS011;17387;42.690;23.328;2023-07-31T07:24:31;5.20;;;4.53;;
29984;SDS011;17387;42.690;23.328;2023-07-31T07:26:56;4.80;;;4.20;;
29984;SDS011;17387;42.690;23.328;2023-07-31T07:29:21;5.63;;;4.50;;
29984;SDS011;17387;42.690;23.328;2023-07-31T07:31:46;5.28;;;4.78;;
29984;SDS011;17387;42.690;23.328;2023-07-31T07:34:12;6.43;;;5.00;;
29984;SDS011;17387;42.690;23.328;2023-07-31T07:36:37;7.23;;;4.30;;
29984;SDS011;17387;42.690;23.328;2023-07-31T07:39:02;5.60;;;4.30;;
29984;SDS011;17387;42.690;23.328;2023-07-31T07:41:27;5.97;;;4.07;;
29984;SDS011;17387;42.690;23.328;2023-07-31T07:43:53;4.93;;;3.83;;
29984;SDS011;17387;42.690;23.328;2023-07-31T07:46:18;7.13;;;4.40;;
29984;SDS011;17387;42.690;23.328;2023-07-31T07:48:43;5.15;;;4.13;;
29984;SDS011;17387;42.690;23.328;2023-07-31T07:51:08;4.50;;;3.92;;
29984;SDS011;17387;42.690;23.328;2023-07-31T07:53:34;6.95;;;3.92;;
29984;SDS011;17387;42.690;23.328;2023-07-31T07:55:59;5.47;;;3.37;;
29984;SDS011;17387;42.690;23.328;2023-07-31T07:58:24;8.87;;;4.00;;
29984;SDS011;17387;42.690;23.328;2023-07-31T08:00:50;6.20;;;3.72;;
29984;SDS011;17387;42.690;23.328;2023-07-31T08:03:15;4.13;;;3.47;;
29984;SDS011;17387;42.690;23.328;2023-07-31T08:05:42;5.15;;;3.58;;
29984;SDS011;17387;42.690;23.328;2023-07-31T08:08:07;6.15;;;4.35;;
29984;SDS011;17387;42.690;23.328;2023-07-31T08:10:32;8.20;;;4.43;;
29984;SDS011;17387;42.690;23.328;2023-07-31T08:12:58;5.15;;;3.85;;
29984;SDS011;17387;42.690;23.328;2023-07-31T08:15:23;4.60;;;4.03;;
29984;SDS011;17387;42.690;23.328;2023-07-31T08:17:48;4.10;;;3.70;;
29984;SDS011;17387;42.690;23.328;2023-07-31T08:20:13;5.75;;;3.83;;
29984;SDS011;17387;42.690;23.328;2023-07-31T08:22:39;6.65;;;4.50;;
29984;SDS011;17387;42.690;23.328;2023-07-31T08:25:05;4.57;;;4.05;;
29984;SDS011;17387;42.690;23.328;2023-07-31T08:27:31;5.53;;;4.13;;
29984;SDS011;17387;42.690;23.328;2023-07-31T08:29:57;6.82;;;4.00;;
29984;SDS011;17387;42.690;23.328;2023-07-31T08:32:22;4.67;;;3.80;;
29984;SDS011;17387;42.690;23.328;2023-07-31T08:34:47;7.13;;;4.30;;
29984;SDS011;17387;42.690;23.328;2023-07-31T08:37:12;7.80;;;3.88;;
29984;SDS011;17387;42.690;23.328;2023-07-31T08:39:38;5.13;;;4.17;;
29984;SDS011;17387;42.690;23.328;2023-07-31T08:42:07;4.95;;;4.35;;
29984;SDS011;17387;42.690;23.328;2023-07-31T08:44:32;5.78;;;3.70;;
29984;SDS011;17387;42.690;23.328;2023-07-31T08:46:58;4.15;;;3.65;;
29984;SDS011;17387;42.690;23.328;2023-07-31T08:49:24;4.35;;;3.50;;
29984;SDS011;17387;42.690;23.328;2023-07-31T08:51:49;5.63;;;3.60;;
29984;SDS011;17387;42.690;23.328;2023-07-31T08:54:15;4.13;;;3.72;;
29984;SDS011;17387;42.690;23.328;2023-07-31T08:56:40;5.07;;;3.90;;
29984;SDS011;17387;42.690;23.328;2023-07-31T08:59:06;5.00;;;3.78;;
29984;SDS011;17387;42.690;23.328;2023-07-31T09:01:32;4.53;;;3.90;;
29984;SDS011;17387;42.690;23.328;2023-07-31T09:03:59;4.10;;;3.55;;
29984;SDS011;17387;42.690;23.328;2023-07-31T09:06:25;5.28;;;4.10;;
29984;SDS011;17387;42.690;23.328;2023-07-31T09:08:52;6.38;;;3.92;;
29984;SDS011;17387;42.690;23.328;2023-07-31T09:11:17;4.05;;;3.65;;
29984;SDS011;17387;42.690;23.328;2023-07-31T09:13:43;4.38;;;3.60;;
29984;SDS011;17387;42.690;23.328;2023-07-31T09:16:10;4.45;;;3.30;;
29984;SDS011;17387;42.690;23.328;2023-07-31T09:21:30;5.00;;;3.65;;
29984;SDS011;17387;42.690;23.328;2023-07-31T09:23:57;8.10;;;4.00;;
29984;SDS011;17387;42.690;23.328;2023-07-31T09:26:29;4.50;;;3.50;;
29984;SDS011;17387;42.690;23.328;2023-07-31T09:28:55;4.55;;;3.55;;
29984;SDS011;17387;42.690;23.328;2023-07-31T09:33:58;6.78;;;3.88;;
29984;SDS011;17387;42.690;23.328;2023-07-31T09:36:23;4.93;;;3.57;;
29984;SDS011;17387;42.690;23.328;2023-07-31T09:38:48;3.90;;;3.43;;
29984;SDS011;17387;42.690;23.328;2023-07-31T09:41:13;4.53;;;3.67;;
29984;SDS011;17387;42.690;23.328;2023-07-31T09:43:39;5.05;;;3.88;;
29984;SDS011;17387;42.690;23.328;2023-07-31T09:46:04;4.30;;;3.55;;
29984;SDS011;17387;42.690;23.328;2023-07-31T09:48:38;6.60;;;3.22;;
29984;SDS011;17387;42.690;23.328;2023-07-31T09:51:04;3.92;;;3.13;;
29984;SDS011;17387;42.690;23.328;2023-07-31T09:53:30;6.28;;;3.13;;
29984;SDS011;17387;42.690;23.328;2023-07-31T09:55:55;5.05;;;2.95;;
29984;SDS011;17387;42.690;23.328;2023-07-31T09:58:22;4.22;;;3.33;;
29984;SDS011;17387;42.690;23.328;2023-07-31T10:00:48;3.28;;;2.78;;
29984;SDS011;17387;42.690;23.328;2023-07-31T10:03:13;4.82;;;2.75;;
29984;SDS011;17387;42.690;23.328;2023-07-31T10:05:42;3.78;;;2.60;;
29984;SDS011;17387;42.690;23.328;2023-07-31T10:08:11;3.63;;;3.08;;
29984;SDS011;17387;42.690;23.328;2023-07-31T10:10:41;3.55;;;2.55;;
29984;SDS011;17387;42.690;23.328;2023-07-31T10:13:06;3.92;;;2.67;;
29984;SDS011;17387;42.690;23.328;2023-07-31T10:15:32;6.90;;;3.17;;
29984;SDS011;17387;42.690;23.328;2023-07-31T10:17:58;3.72;;;2.60;;
29984;SDS011;17387;42.690;23.328;2023-07-31T10:20:23;4.30;;;2.40;;
29984;SDS011;17387;42.690;23.328;2023-07-31T10:22:49;5.43;;;3.05;;
29984;SDS011;17387;42.690;23.328;2023-07-31T10:25:16;3.03;;;2.72;;
29984;SDS011;17387;42.690;23.328;2023-07-31T10:27:42;4.53;;;2.70;;
29984;SDS011;17387;42.690;23.328;2023-07-31T10:30:08;4.22;;;3.17;;
29984;SDS011;17387;42.690;23.328;2023-07-31T10:32:34;3.63;;;2.50;;
29984;SDS011;17387;42.690;23.328;2023-07-31T10:35:00;2.90;;;2.47;;
29984;SDS011;17387;42.690;23.328;2023-07-31T10:37:44;4.50;;;2.53;;
29984;SDS011;17387;42.690;23.328;2023-07-31T10:40:19;2.35;;;2.13;;
29984;SDS011;17387;42.690;23.328;2023-07-31T10:42:52;3.78;;;2.50;;
29984;SDS011;17387;42.690;23.328;2023-07-31T10:45:37;3.15;;;2.83;;
29984;SDS011;17387;42.690;23.328;2023-07-31T10:48:03;2.97;;;2.55;;
29984;SDS011;17387;42.690;23.328;2023-07-31T10:50:30;2.90;;;2.60;;
29984;SDS011;17387;42.690;23.328;2023-07-31T10:52:57;2.78;;;2.58;;
29984;SDS011;17387;42.690;23.328;2023-07-31T10:55:42;2.85;;;2.20;;
29984;SDS011;17387;42.690;23.328;2023-07-31T10:58:11;3.58;;;2.15;;
29984;SDS011;17387;42.690;23.328;2023-07-31T11:00:37;2.78;;;2.40;;
29984;SDS011;17387;42.690;23.328;2023-07-31T11:03:09;3.20;;;2.50;;
29984;SDS011;17387;42.690;23.328;2023-07-31T11:10:50;3.28;;;2.30;;
29984;SDS011;17387;42.690;23.328;2023-07-31T11:13:16;3.15;;;2.78;;
29984;SDS011;17387;42.690;23.328;2023-07-31T11:15:41;2.45;;;2.08;;
29984;SDS011;17387;42.690;23.328;2023-07-31T11:18:06;5.23;;;2.10;;
29984;SDS011;17387;42.690;23.328;2023-07-31T11:20:33;3.67;;;2.50;;
29984;SDS011;17387;42.690;23.328;2023-07-31T11:23:00;4.25;;;2.50;;
29984;SDS011;17387;42.690;23.328;2023-07-31T11:25:26;4.05;;;2.20;;
29984;SDS011;17387;42.690;23.328;2023-07-31T11:27:51;3.90;;;2.38;;
29984;SDS011;17387;42.690;23.328;2023-07-31T11:30:19;4.88;;;2.33;;
29984;SDS011;17387;42.690;23.328;2023-07-31T11:32:44;4.35;;;2.60;;
29984;SDS011;17387;42.690;23.328;2023-07-31T11:35:12;8.17;;;2.53;;
29984;SDS011;17387;42.690;23.328;2023-07-31T11:37:41;3.00;;;2.13;;
29984;SDS011;17387;42.690;23.328;2023-07-31T11:40:06;4.25;;;2.30;;
29984;SDS011;17387;42.690;23.328;2023-07-31T11:42:32;6.18;;;3.40;;
29984;SDS011;17387;42.690;23.328;2023-07-31T11:44:57;5.25;;;2.95;;
29984;SDS011;17387;42.690;23.328;2023-07-31T11:47:22;3.40;;;3.00;;
29984;SDS011;17387;42.690;23.328;2023-07-31T11:49:50;5.65;;;2.95;;
29984;SDS011;17387;42.690;23.328;2023-07-31T11:52:16;5.63;;;3.30;;
29984;SDS011;17387;42.690;23.328;2023-07-31T11:54:42;3.38;;;3.08;;
29984;SDS011;17387;42.690;23.328;2023-07-31T11:57:07;3.22;;;2.92;;
29984;SDS011;17387;42.690;23.328;2023-07-31T11:59:33;3.50;;;3.20;;
29984;SDS011;17387;42.690;23.328;2023-07-31T12:01:58;4.60;;;3.17;;
29984;SDS011;17387;42.690;23.328;2023-07-31T12:04:24;3.67;;;3.38;;
29984;SDS011;17387;42.690;23.328;2023-07-31T12:06:50;3.70;;;3.35;;
29984;SDS011;17387;42.690;23.328;2023-07-31T12:09:17;4.00;;;3.60;;
29984;SDS011;17387;42.690;23.328;2023-07-31T12:11:43;6.32;;;3.80;;
29984;SDS011;17387;42.690;23.328;2023-07-31T12:14:18;4.65;;;3.80;;
29984;SDS011;17387;42.690;23.328;2023-07-31T12:16:44;6.47;;;4.13;;
29984;SDS011;17387;42.690;23.328;2023-07-31T12:19:09;7.20;;;5.00;;
29984;SDS011;17387;42.690;23.328;2023-07-31T12:21:34;5.60;;;4.90;;
29984;SDS011;17387;42.690;23.328;2023-07-31T12:23:59;5.80;;;4.97;;
29984;SDS011;17387;42.690;23.328;2023-07-31T12:26:25;7.00;;;5.63;;
29984;SDS011;17387;42.690;23.328;2023-07-31T12:28:58;8.23;;;5.80;;
29984;SDS011;17387;42.690;23.328;2023-07-31T12:31:23;6.67;;;5.00;;
29984;SDS011;17387;42.690;23.328;2023-07-31T12:33:52;6.13;;;5.53;;
29984;SDS011;17387;42.690;23.328;2023-07-31T12:36:21;8.05;;;5.00;;
29984;SDS011;17387;42.690;23.328;2023-07-31T12:38:47;5.22;;;4.72;;
29984;SDS011;17387;42.690;23.328;2023-07-31T12:41:12;5.38;;;4.57;;
29984;SDS011;17387;42.690;23.328;2023-07-31T12:43:38;5.00;;;4.22;;
29984;SDS011;17387;42.690;23.328;2023-07-31T12:46:04;5.82;;;5.32;;
29984;SDS011;17387;42.690;23.328;2023-07-31T12:48:29;7.85;;;6.03;;
29984;SDS011;17387;42.690;23.328;2023-07-31T12:50:55;5.90;;;5.30;;
29984;SDS011;17387;42.690;23.328;2023-07-31T12:53:20;6.88;;;6.18;;
29984;SDS011;17387;42.690;23.328;2023-07-31T12:55:45;6.37;;;5.77;;
29984;SDS011;17387;42.690;23.328;2023-07-31T12:58:10;7.10;;;6.47;;
29984;SDS011;17387;42.690;23.328;2023-07-31T13:00:36;7.57;;;6.35;;
29984;SDS011;17387;42.690;23.328;2023-07-31T13:03:01;7.55;;;6.00;;
29984;SDS011;17387;42.690;23.328;2023-07-31T13:05:28;8.85;;;6.40;;
29984;SDS011;17387;42.690;23.328;2023-07-31T13:07:53;7.72;;;6.03;;
29984;SDS011;17387;42.690;23.328;2023-07-31T13:10:19;8.83;;;6.63;;
29984;SDS011;17387;42.690;23.328;2023-07-31T13:12:44;6.40;;;5.80;;
29984;SDS011;17387;42.690;23.328;2023-07-31T13:15:09;8.33;;;6.80;;
29984;SDS011;17387;42.690;23.328;2023-07-31T13:17:35;7.32;;;6.07;;
29984;SDS011;17387;42.690;23.328;2023-07-31T13:20:00;7.72;;;5.75;;
29984;SDS011;17387;42.690;23.328;2023-07-31T13:22:25;10.03;;;5.80;;
29984;SDS011;17387;42.690;23.328;2023-07-31T13:24:51;8.20;;;5.43;;
29984;SDS011;17387;42.690;23.328;2023-07-31T13:27:16;6.67;;;5.40;;
29984;SDS011;17387;42.690;23.328;2023-07-31T13:29:44;7.30;;;5.68;;
29984;SDS011;17387;42.690;23.328;2023-07-31T13:32:09;5.55;;;4.68;;
29984;SDS011;17387;42.690;23.328;2023-07-31T13:34:34;5.60;;;5.00;;
29984;SDS011;17387;42.690;23.328;2023-07-31T13:36:59;5.57;;;4.93;;
29984;SDS011;17387;42.690;23.328;2023-07-31T13:39:24;5.53;;;5.03;;
29984;SDS011;17387;42.690;23.328;2023-07-31T13:41:50;6.87;;;5.07;;
29984;SDS011;17387;42.690;23.328;2023-07-31T13:44:15;7.23;;;4.90;;
29984;SDS011;17387;42.690;23.328;2023-07-31T13:46:40;6.07;;;4.77;;
29984;SDS011;17387;42.690;23.328;2023-07-31T13:49:05;7.25;;;5.00;;
29984;SDS011;17387;42.690;23.328;2023-07-31T13:51:31;6.53;;;4.70;;
29984;SDS011;17387;42.690;23.328;2023-07-31T13:53:56;5.25;;;4.30;;
29984;SDS011;17387;42.690;23.328;2023-07-31T13:56:21;5.30;;;4.10;;
29984;SDS011;17387;42.690;23.328;2023-07-31T13:58:46;5.70;;;4.50;;
29984;SDS011;17387;42.690;23.328;2023-07-31T14:01:12;5.90;;;4.40;;
29984;SDS011;17387;42.690;23.328;2023-07-31T14:03:37;5.33;;;4.83;;
29984;SDS011;17387;42.690;23.328;2023-07-31T14:06:02;4.83;;;4.27;;
29984;SDS011;17387;42.690;23.328;2023-07-31T14:08:27;5.05;;;4.50;;
29984;SDS011;17387;42.690;23.328;2023-07-31T14:10:54;6.18;;;5.03;;
29984;SDS011;17387;42.690;23.328;2023-07-31T14:13:19;5.43;;;4.57;;
29984;SDS011;17387;42.690;23.328;2023-07-31T14:15:44;6.18;;;4.70;;
29984;SDS011;17387;42.690;23.328;2023-07-31T14:18:10;5.00;;;4.50;;
29984;SDS011;17387;42.690;23.328;2023-07-31T14:20:35;5.03;;;4.57;;
29984;SDS011;17387;42.690;23.328;2023-07-31T14:23:00;6.27;;;4.93;;
29984;SDS011;17387;42.690;23.328;2023-07-31T14:25:26;5.32;;;4.82;;
29984;SDS011;17387;42.690;23.328;2023-07-31T14:27:51;5.18;;;4.72;;
29984;SDS011;17387;42.690;23.328;2023-07-31T14:30:16;5.75;;;4.45;;
29984;SDS011;17387;42.690;23.328;2023-07-31T14:32:43;5.70;;;4.35;;
29984;SDS011;17387;42.690;23.328;2023-07-31T14:35:08;4.93;;;4.43;;
29984;SDS011;17387;42.690;23.328;2023-07-31T14:37:40;6.00;;;4.30;;